Time;durP1;ratioP1;P1;durP2;ratioP2;P2;SDS_P1;SDS_P2;PMS_P1;PMS_P2;Temp;Humidity;BMP_temperature;BMP_pressure;BME280_temperature;BME280_humidity;BME280_pressure;Samples;Min_cycle;Max_cycle;Signal;HPM_P1;HPM_P2
2023/05/10 00:02:16;;;;;;;8.77;5.35;;;13.90;85.00;;;;;;4997471;28;20518;-76
2023/05/10 00:04:43;;;;;;;9.23;5.50;;;13.90;85.20;;;;;;5010872;28;20057;-76
2023/05/10 00:07:11;;;;;;;8.52;4.60;;;13.90;85.20;;;;;;5036001;28;20348;-76
2023/05/10 00:09:39;;;;;;;10.75;5.97;;;13.90;85.40;;;;;;5030673;28;20053;-76
2023/05/10 00:12:06;;;;;;;9.40;6.10;;;13.80;85.30;;;;;;5022373;28;20057;-76
2023/05/10 00:14:34;;;;;;;9.57;6.35;;;13.70;85.40;;;;;;5048468;28;20503;-76
2023/05/10 00:17:01;;;;;;;9.63;5.67;;;13.70;85.60;;;;;;5046229;28;20081;-75
2023/05/10 00:19:28;;;;;;;9.20;5.10;;;13.70;85.80;;;;;;5030290;28;21047;-76
2023/05/10 00:21:55;;;;;;;10.77;6.30;;;13.70;85.70;;;;;;5016533;28;20069;-76
2023/05/10 00:24:22;;;;;;;9.18;5.65;;;13.70;85.80;;;;;;5030107;28;20826;-76
2023/05/10 00:26:50;;;;;;;10.25;5.75;;;13.70;85.90;;;;;;5004503;28;20434;-76
2023/05/10 00:29:17;;;;;;;8.93;5.33;;;13.70;85.90;;;;;;5013426;28;20108;-76
2023/05/10 00:31:44;;;;;;;9.57;5.68;;;13.70;85.90;;;;;;5018904;28;20273;-76
2023/05/10 00:34:11;;;;;;;8.82;5.28;;;13.70;86.00;;;;;;5026694;28;20054;-76
2023/05/10 00:36:38;;;;;;;9.90;5.68;;;13.70;86.20;;;;;;5013963;28;20606;-78
2023/05/10 00:39:08;;;;;;;9.35;5.78;;;13.60;86.00;;;;;;5026997;28;20049;-76
2023/05/10 00:41:35;;;;;;;8.63;4.10;;;13.70;86.10;;;;;;5013025;28;20046;-76
2023/05/10 00:44:04;;;;;;;8.23;5.03;;;13.60;86.00;;;;;;5010362;28;20365;-76
2023/05/10 00:46:31;;;;;;;9.43;5.38;;;13.60;86.00;;;;;;5005970;28;20128;-75
2023/05/10 00:48:59;;;;;;;8.88;5.28;;;13.60;86.20;;;;;;5029615;28;20048;-76
2023/05/10 00:51:26;;;;;;;9.07;5.45;;;13.50;86.30;;;;;;5029456;28;20057;-75
2023/05/10 00:53:54;;;;;;;8.30;5.20;;;13.50;86.30;;;;;;5044733;28;20107;-76
2023/05/10 00:56:22;;;;;;;9.25;5.32;;;13.50;86.40;;;;;;5010899;28;20356;-76
2023/05/10 00:58:50;;;;;;;7.88;4.40;;;13.50;86.50;;;;;;5013465;28;20050;-75
2023/05/10 01:01:18;;;;;;;10.77;6.07;;;13.50;86.50;;;;;;5026683;28;20144;-76
2023/05/10 01:03:46;;;;;;;9.52;5.50;;;13.50;86.50;;;;;;5043710;28;20055;-76
2023/05/10 01:06:13;;;;;;;9.77;5.87;;;13.50;86.50;;;;;;5045947;28;20081;-76
2023/05/10 01:08:41;;;;;;;9.55;5.47;;;13.50;86.50;;;;;;5026722;28;20300;-76
2023/05/10 01:11:08;;;;;;;10.35;5.93;;;13.50;86.50;;;;;;5028685;28;20053;-76
2023/05/10 01:13:39;;;;;;;10.30;5.97;;;13.50;86.60;;;;;;5008932;28;20050;-76
2023/05/10 01:16:07;;;;;;;10.52;5.65;;;13.50;86.60;;;;;;5027104;28;20054;-76
2023/05/10 01:18:38;;;;;;;10.27;5.67;;;13.50;86.60;;;;;;5001154;28;20070;-75
2023/05/10 01:21:18;;;;;;;10.80;5.65;;;13.50;86.80;;;;;;5006016;28;20367;-76
2023/05/10 01:24:07;;;;;;;10.20;5.70;;;13.50;86.70;;;;;;5024205;28;20045;-76
2023/05/10 01:27:13;;;;;;;11.57;5.25;;;13.50;86.70;;;;;;5027492;28;20058;-76
2023/05/10 01:30:09;;;;;;;9.48;5.38;;;13.50;86.70;;;;;;5046306;28;20046;-76
2023/05/10 01:32:44;;;;;;;9.63;4.80;;;13.50;86.70;;;;;;5027635;28;20057;-76
2023/05/10 01:35:17;;;;;;;9.77;5.20;;;13.50;86.80;;;;;;5008623;28;20368;-75
2023/05/10 01:37:51;;;;;;;8.90;5.13;;;13.40;86.70;;;;;;5028901;28;20077;-76
2023/05/10 01:40:24;;;;;;;9.27;5.05;;;13.30;86.80;;;;;;5005575;28;20133;-76
2023/05/10 01:42:55;;;;;;;9.63;4.90;;;13.30;87.00;;;;;;5009527;28;20053;-76
2023/05/10 01:45:27;;;;;;;9.03;4.70;;;13.30;87.00;;;;;;5019868;28;20054;-76
2023/05/10 01:48:10;;;;;;;8.65;4.57;;;13.30;87.20;;;;;;5023942;28;20913;-76
2023/05/10 01:50:40;;;;;;;8.68;4.80;;;13.30;87.20;;;;;;5007223;28;20048;-76
2023/05/10 01:53:10;;;;;;;8.75;4.57;;;13.30;87.10;;;;;;5008769;28;20140;-76
2023/05/10 01:55:43;;;;;;;9.55;4.72;;;13.30;87.30;;;;;;4999123;28;20111;-76
2023/05/10 01:58:15;;;;;;;9.40;5.57;;;13.30;87.40;;;;;;5010721;28;20085;-76
2023/05/10 02:00:45;;;;;;;8.85;4.63;;;13.30;87.20;;;;;;5009067;28;20777;-76
2023/05/10 02:03:17;;;;;;;8.73;4.50;;;13.30;87.40;;;;;;5028787;28;20052;-76
2023/05/10 02:05:45;;;;;;;8.85;4.85;;;13.30;87.50;;;;;;5030624;28;20090;-76
2023/05/10 02:08:12;;;;;;;8.73;4.88;;;13.20;87.30;;;;;;5032514;28;20049;-76
2023/05/10 02:10:40;;;;;;;8.30;4.73;;;13.20;87.30;;;;;;5017120;28;20132;-76
2023/05/10 02:13:10;;;;;;;8.18;4.43;;;13.20;87.50;;;;;;5015702;28;20281;-76
2023/05/10 02:15:39;;;;;;;8.68;4.70;;;13.30;87.70;;;;;;5012637;28;20052;-76
2023/05/10 02:18:07;;;;;;;8.20;4.47;;;13.30;87.60;;;;;;5031769;28;20085;-75
2023/05/10 02:20:36;;;;;;;8.43;4.15;;;13.30;87.60;;;;;;5011126;28;20042;-76
2023/05/10 02:23:05;;;;;;;9.67;4.80;;;13.30;87.60;;;;;;5014097;28;20132;-76
2023/05/10 02:25:33;;;;;;;9.45;4.82;;;13.30;87.50;;;;;;5010284;28;20273;-76
2023/05/10 02:28:03;;;;;;;9.50;5.25;;;13.30;87.50;;;;;;5028026;28;20057;-76
2023/05/10 02:30:32;;;;;;;8.45;4.78;;;13.30;87.50;;;;;;5000655;28;20054;-76
2023/05/10 02:33:00;;;;;;;10.02;5.50;;;13.30;87.60;;;;;;4995742;28;20042;-76
2023/05/10 02:35:28;;;;;;;9.43;5.10;;;13.30;87.50;;;;;;5019363;28;20060;-75
2023/05/10 02:37:59;;;;;;;8.40;4.88;;;13.30;87.50;;;;;;5028643;28;20316;-76
2023/05/10 02:40:28;;;;;;;8.25;4.75;;;13.30;87.40;;;;;;5014504;28;20046;-76
2023/05/10 02:42:58;;;;;;;10.35;5.40;;;13.20;87.40;;;;;;5013902;28;20635;-76
2023/05/10 02:45:28;;;;;;;8.02;4.60;;;13.20;87.50;;;;;;5016041;28;20052;-76
2023/05/10 02:47:56;;;;;;;8.80;4.80;;;13.20;87.50;;;;;;5030382;28;20046;-76
2023/05/10 02:50:26;;;;;;;8.82;4.65;;;13.20;87.50;;;;;;5029604;28;20245;-76
2023/05/10 02:53:00;;;;;;;7.90;4.57;;;13.20;87.50;;;;;;5013494;28;20056;-76
2023/05/10 02:55:37;;;;;;;8.00;4.55;;;13.20;87.60;;;;;;5007974;28;20054;-75
2023/05/10 02:58:10;;;;;;;9.10;5.07;;;13.20;87.60;;;;;;5047533;28;20132;-76
2023/05/10 03:00:37;;;;;;;8.47;4.83;;;13.20;87.60;;;;;;5009361;28;20151;-75
2023/05/10 03:03:04;;;;;;;8.05;4.78;;;13.20;87.60;;;;;;5009977;28;20288;-76
2023/05/10 03:05:31;;;;;;;7.55;4.18;;;13.20;87.70;;;;;;5021355;28;20053;-75
2023/05/10 03:08:04;;;;;;;7.47;3.80;;;13.10;87.60;;;;;;5009121;28;20053;-76
2023/05/10 03:10:32;;;;;;;6.45;3.45;;;13.10;87.60;;;;;;5027662;28;20065;-76
2023/05/10 03:13:08;;;;;;;7.07;3.63;;;13.10;87.60;;;;;;5031203;28;20095;-76
2023/05/10 03:15:43;;;;;;;8.80;4.35;;;13.10;87.50;;;;;;5015179;28;20307;-75
2023/05/10 03:18:13;;;;;;;7.28;4.63;;;13.10;87.60;;;;;;5029946;28;20940;-76
2023/05/10 03:20:44;;;;;;;7.65;4.15;;;13.10;87.60;;;;;;5004093;28;20085;-76
2023/05/10 03:23:22;;;;;;;7.60;4.43;;;13.10;87.60;;;;;;5001355;28;20779;-76
2023/05/10 03:25:50;;;;;;;8.07;4.60;;;13.10;87.50;;;;;;5028850;28;20377;-76
2023/05/10 03:28:19;;;;;;;8.35;3.85;;;13.10;87.50;;;;;;5011023;28;20809;-76
2023/05/10 03:30:47;;;;;;;7.82;4.25;;;13.10;87.50;;;;;;5010185;28;20978;-76
2023/05/10 03:33:15;;;;;;;7.90;3.88;;;13.10;87.50;;;;;;5010380;28;20054;-76
2023/05/10 03:35:46;;;;;;;7.80;4.60;;;13.10;87.40;;;;;;5011879;28;20050;-76
2023/05/10 03:38:15;;;;;;;7.67;4.10;;;13.10;87.40;;;;;;5014167;28;20510;-76
2023/05/10 03:40:42;;;;;;;7.47;4.82;;;13.10;87.50;;;;;;5013786;28;21204;-75
2023/05/10 03:43:09;;;;;;;8.75;4.05;;;13.10;87.50;;;;;;5022918;28;20049;-76
2023/05/10 03:45:36;;;;;;;8.55;4.68;;;13.10;87.50;;;;;;4994610;28;20058;-76
2023/05/10 03:48:03;;;;;;;7.97;4.40;;;13.10;87.50;;;;;;4993986;28;20112;-76
2023/05/10 03:50:30;;;;;;;8.97;5.20;;;13.00;87.50;;;;;;5011515;28;20048;-76
2023/05/10 03:52:57;;;;;;;8.73;5.05;;;13.10;87.50;;;;;;5013576;28;20422;-76
2023/05/10 03:55:26;;;;;;;8.82;4.82;;;13.00;87.30;;;;;;5014197;28;20049;-76
2023/05/10 03:57:53;;;;;;;9.18;5.05;;;13.00;87.40;;;;;;5003814;28;20049;-76
2023/05/10 04:00:22;;;;;;;7.25;4.32;;;13.00;87.50;;;;;;5008736;28;20057;-76
2023/05/10 04:02:52;;;;;;;8.50;5.13;;;13.00;87.40;;;;;;5012019;28;20049;-76
2023/05/10 04:05:20;;;;;;;9.00;4.82;;;13.00;87.40;;;;;;5029696;28;20252;-76
2023/05/10 04:07:49;;;;;;;9.27;6.03;;;13.00;87.50;;;;;;5049665;28;20056;-76
2023/05/10 04:10:17;;;;;;;8.00;4.75;;;13.00;87.50;;;;;;5019515;28;20049;-75
2023/05/10 04:12:45;;;;;;;8.52;4.95;;;13.00;87.50;;;;;;5028929;28;20057;-75
2023/05/10 04:15:12;;;;;;;8.10;4.60;;;13.00;87.50;;;;;;5048050;28;20060;-75
2023/05/10 04:17:39;;;;;;;8.57;5.10;;;13.00;87.60;;;;;;5047179;28;20786;-75
2023/05/10 04:20:08;;;;;;;8.02;4.75;;;13.00;87.50;;;;;;5030063;28;20054;-75
2023/05/10 04:22:35;;;;;;;7.28;4.13;;;13.00;87.60;;;;;;5024873;28;20602;-76
2023/05/10 04:25:01;;;;;;;8.60;4.60;;;13.00;87.60;;;;;;5010546;28;20133;-75
2023/05/10 04:27:28;;;;;;;8.03;4.33;;;13.00;87.50;;;;;;5023661;28;20107;-76
2023/05/10 04:29:57;;;;;;;8.50;4.50;;;13.00;87.50;;;;;;5039440;28;20265;-75
2023/05/10 04:32:24;;;;;;;8.63;4.30;;;13.00;87.50;;;;;;5047559;28;20057;-76
2023/05/10 04:34:51;;;;;;;8.20;4.88;;;13.00;87.60;;;;;;5010319;28;20563;-76
2023/05/10 04:37:18;;;;;;;8.43;4.70;;;13.00;87.50;;;;;;5044116;28;20060;-76
2023/05/10 04:39:45;;;;;;;7.73;4.60;;;13.00;87.60;;;;;;5027835;28;20050;-75
2023/05/10 04:42:14;;;;;;;8.75;4.90;;;13.00;87.50;;;;;;5029653;28;20291;-75
2023/05/10 04:44:41;;;;;;;8.20;4.82;;;13.00;87.60;;;;;;5029741;28;20120;-76
2023/05/10 04:47:09;;;;;;;9.13;4.75;;;13.00;87.60;;;;;;5046351;28;20475;-76
2023/05/10 04:49:36;;;;;;;7.78;4.55;;;13.00;87.70;;;;;;5046812;28;20594;-76
2023/05/10 04:52:03;;;;;;;8.10;4.90;;;13.00;87.70;;;;;;5025781;28;20590;-75
2023/05/10 04:54:30;;;;;;;9.45;4.97;;;13.00;87.80;;;;;;5026335;28;20280;-76
2023/05/10 04:56:57;;;;;;;8.23;4.68;;;13.00;87.80;;;;;;5023696;28;20049;-76
2023/05/10 04:59:24;;;;;;;9.80;5.25;;;13.00;87.80;;;;;;5024429;28;20141;-75
2023/05/10 05:01:51;;;;;;;8.57;4.82;;;13.00;87.90;;;;;;5023927;28;20839;-76
2023/05/10 05:04:19;;;;;;;9.60;4.73;;;13.00;87.90;;;;;;5003720;28;20053;-76
2023/05/10 05:06:46;;;;;;;9.15;4.53;;;13.00;88.00;;;;;;5025033;28;21365;-76
2023/05/10 05:09:13;;;;;;;8.18;3.90;;;13.00;88.00;;;;;;5002409;28;20519;-75
2023/05/10 05:11:40;;;;;;;8.23;4.10;;;13.00;88.10;;;;;;5046682;28;20120;-76
2023/05/10 05:14:07;;;;;;;6.88;3.03;;;13.00;88.00;;;;;;5022383;28;20046;-76
2023/05/10 05:16:34;;;;;;;7.10;3.93;;;13.00;88.20;;;;;;5028897;28;20052;-76
2023/05/10 05:19:01;;;;;;;7.97;4.70;;;13.00;88.10;;;;;;5012660;28;20288;-76
2023/05/10 05:21:29;;;;;;;8.68;5.00;;;13.00;88.20;;;;;;5026791;28;20054;-76
2023/05/10 05:23:56;;;;;;;10.95;4.60;;;13.00;88.20;;;;;;5040402;28;20054;-75
2023/05/10 05:26:23;;;;;;;8.88;4.35;;;13.00;88.20;;;;;;5028028;28;20092;-75
2023/05/10 05:28:53;;;;;;;9.70;4.50;;;13.00;88.20;;;;;;5007329;28;20050;-75
2023/05/10 05:31:20;;;;;;;7.45;3.65;;;13.00;88.30;;;;;;5024701;28;20345;-75
2023/05/10 05:33:47;;;;;;;8.20;4.40;;;13.00;88.20;;;;;;5007178;28;20045;-76
2023/05/10 05:36:14;;;;;;;8.75;4.50;;;13.00;88.10;;;;;;5012237;28;20050;-76
2023/05/10 05:38:42;;;;;;;7.80;3.65;;;13.00;88.20;;;;;;5007478;28;20892;-76
2023/05/10 05:41:09;;;;;;;10.03;4.40;;;13.00;88.20;;;;;;5029916;28;20050;-75
2023/05/10 05:43:36;;;;;;;7.68;3.65;;;13.00;88.10;;;;;;5050354;28;20898;-76
2023/05/10 05:46:03;;;;;;;8.50;4.28;;;13.00;88.20;;;;;;5032503;28;20053;-75
2023/05/10 05:48:31;;;;;;;8.65;4.20;;;13.00;88.20;;;;;;5050191;28;20052;-76
2023/05/10 05:50:58;;;;;;;9.95;3.92;;;12.90;88.40;;;;;;5050226;28;20150;-76
2023/05/10 05:53:25;;;;;;;8.57;4.10;;;13.00;88.40;;;;;;5028118;28;20058;-76
2023/05/10 05:55:54;;;;;;;8.15;4.40;;;13.00;88.40;;;;;;5005000;28;20256;-75
2023/05/10 05:58:22;;;;;;;9.18;3.88;;;13.00;88.50;;;;;;5014999;28;20953;-76
2023/05/10 06:00:49;;;;;;;6.88;3.22;;;12.90;88.50;;;;;;5023598;28;20581;-76
2023/05/10 06:03:16;;;;;;;8.82;3.65;;;13.00;88.70;;;;;;5030400;28;20050;-76
2023/05/10 06:05:43;;;;;;;8.37;4.10;;;13.00;88.50;;;;;;5024516;28;20041;-76
2023/05/10 06:08:10;;;;;;;7.72;4.05;;;13.00;88.50;;;;;;5013782;28;20260;-76
2023/05/10 06:10:37;;;;;;;7.43;4.00;;;13.00;88.50;;;;;;5028392;28;20110;-76
2023/05/10 06:13:06;;;;;;;5.68;2.35;;;12.90;88.60;;;;;;5024849;28;20049;-76
2023/05/10 06:15:33;;;;;;;7.78;3.45;;;12.90;88.70;;;;;;5040934;28;20053;-75
2023/05/10 06:18:00;;;;;;;8.20;2.93;;;12.90;88.80;;;;;;5041473;28;20053;-76
2023/05/10 06:20:27;;;;;;;6.40;2.95;;;12.90;89.00;;;;;;5024252;28;21290;-76
2023/05/10 06:22:54;;;;;;;7.07;3.17;;;12.90;89.10;;;;;;5025182;28;20054;-75
2023/05/10 06:25:21;;;;;;;9.07;4.43;;;12.90;89.30;;;;;;5025279;28;20069;-75
2023/05/10 06:27:48;;;;;;;6.15;2.53;;;12.80;89.50;;;;;;5041307;28;20700;-75
2023/05/10 06:30:16;;;;;;;5.60;1.37;;;12.80;89.70;;;;;;5040263;28;20049;-75
2023/05/10 06:32:44;;;;;;;8.25;2.72;;;12.80;89.80;;;;;;5022399;28;20690;-75
2023/05/10 06:35:12;;;;;;;7.75;3.95;;;12.80;89.90;;;;;;5044447;28;20164;-75
2023/05/10 06:37:39;;;;;;;8.30;3.63;;;12.80;89.90;;;;;;5023137;28;20049;-75
2023/05/10 06:40:09;;;;;;;6.32;2.83;;;12.80;90.00;;;;;;5008453;28;20041;-75
2023/05/10 06:42:36;;;;;;;9.07;3.30;;;12.80;90.10;;;;;;5039667;28;20053;-76
2023/05/10 06:45:05;;;;;;;6.57;2.53;;;12.80;90.10;;;;;;5028958;28;20257;-76
2023/05/10 06:47:33;;;;;;;5.15;2.42;;;12.80;90.40;;;;;;5006268;28;20041;-75
2023/05/10 06:50:00;;;;;;;7.03;3.40;;;12.80;90.40;;;;;;5026512;28;20053;-75
2023/05/10 06:52:28;;;;;;;8.55;4.07;;;12.80;90.20;;;;;;5048440;28;20132;-76
2023/05/10 06:54:55;;;;;;;6.97;2.37;;;12.80;90.20;;;;;;5044403;28;20138;-76
2023/05/10 06:57:22;;;;;;;7.63;4.07;;;12.80;90.30;;;;;;5029027;28;20280;-75
2023/05/10 06:59:49;;;;;;;5.78;2.78;;;12.90;90.40;;;;;;5027579;28;20060;-76
2023/05/10 07:02:16;;;;;;;6.90;2.35;;;12.90;90.10;;;;;;5028567;28;20045;-76
2023/05/10 07:04:44;;;;;;;7.68;2.97;;;12.90;90.20;;;;;;5020742;28;21427;-75
2023/05/10 07:07:12;;;;;;;9.37;4.40;;;12.90;90.40;;;;;;5048290;28;20094;-75
2023/05/10 07:09:39;;;;;;;9.00;3.55;;;12.90;90.50;;;;;;5029248;28;20281;-75
2023/05/10 07:12:06;;;;;;;7.38;3.35;;;12.90;90.70;;;;;;5048356;28;20054;-76
2023/05/10 07:14:33;;;;;;;6.63;3.13;;;12.90;90.60;;;;;;5021073;28;20507;-76
2023/05/10 07:17:00;;;;;;;6.18;2.80;;;13.00;90.50;;;;;;5045544;28;20057;-76
2023/05/10 07:19:29;;;;;;;7.13;2.80;;;13.00;90.20;;;;;;5027543;28;20168;-76
2023/05/10 07:21:57;;;;;;;6.88;2.47;;;13.00;90.10;;;;;;5042753;28;20261;-75
2023/05/10 07:24:25;;;;;;;8.00;3.38;;;13.00;90.30;;;;;;5020837;28;20069;-75
2023/05/10 07:26:52;;;;;;;6.65;2.58;;;13.00;90.50;;;;;;5026553;28;20135;-75
2023/05/10 07:29:19;;;;;;;8.05;4.05;;;13.00;90.40;;;;;;5021424;28;20136;-75
2023/05/10 07:31:46;;;;;;;7.77;3.20;;;13.00;90.30;;;;;;5039912;28;20063;-76
2023/05/10 07:34:13;;;;;;;8.57;3.80;;;13.10;90.10;;;;;;5027336;28;20265;-76
2023/05/10 07:36:40;;;;;;;4.78;2.13;;;13.10;89.90;;;;;;5026685;28;20046;-76
2023/05/10 07:39:09;;;;;;;6.75;2.53;;;13.10;89.80;;;;;;5025212;28;20046;-76
2023/05/10 07:41:37;;;;;;;6.18;2.38;;;13.10;89.70;;;;;;5028495;28;20503;-75
2023/05/10 07:44:04;;;;;;;6.60;3.17;;;13.10;89.50;;;;;;5027871;28;20041;-75
2023/05/10 07:46:31;;;;;;;7.60;3.45;;;13.10;89.30;;;;;;5046056;28;20856;-76
2023/05/10 07:48:59;;;;;;;4.93;1.67;;;13.10;89.20;;;;;;5013423;28;20053;-76
2023/05/10 07:51:26;;;;;;;6.63;2.75;;;13.00;89.30;;;;;;5030421;28;20053;-76
2023/05/10 07:53:53;;;;;;;7.88;2.35;;;13.10;89.30;;;;;;5026593;28;20042;-76
2023/05/10 07:56:29;;;;;;;6.27;1.80;;;13.10;89.50;;;;;;5026255;28;20050;-76
2023/05/10 07:58:56;;;;;;;6.10;2.58;;;13.10;89.50;;;;;;5027638;28;20322;-75
2023/05/10 08:01:24;;;;;;;6.15;2.90;;;13.00;89.50;;;;;;5005141;28;20161;-75
2023/05/10 08:03:52;;;;;;;4.55;1.50;;;13.00;89.50;;;;;;5046353;28;20056;-75
2023/05/10 08:06:20;;;;;;;5.05;1.85;;;13.00;89.40;;;;;;5008745;28;20499;-75
2023/05/10 08:08:49;;;;;;;4.13;1.73;;;13.00;89.30;;;;;;5041018;28;20045;-76
2023/05/10 08:11:16;;;;;;;4.00;1.35;;;13.10;89.40;;;;;;5030501;28;20241;-75
2023/05/10 08:13:45;;;;;;;4.32;1.40;;;13.10;89.30;;;;;;5043223;28;20054;-75
2023/05/10 08:16:12;;;;;;;4.47;2.03;;;13.10;89.30;;;;;;5027080;28;20431;-75
2023/05/10 08:18:40;;;;;;;5.78;2.22;;;13.10;89.30;;;;;;5021994;28;20612;-75
2023/05/10 08:21:07;;;;;;;4.93;1.97;;;13.10;89.40;;;;;;5047916;28;20053;-75
2023/05/10 08:23:35;;;;;;;6.75;2.40;;;13.10;89.40;;;;;;5023046;28;20797;-75
2023/05/10 08:26:02;;;;;;;6.45;2.53;;;13.30;89.10;;;;;;5030177;28;20933;-75
2023/05/10 08:28:29;;;;;;;8.57;3.40;;;13.30;89.00;;;;;;5027701;28;20830;-75
2023/05/10 08:30:57;;;;;;;7.32;3.28;;;13.30;88.90;;;;;;5020480;28;20053;-75
2023/05/10 08:33:24;;;;;;;6.07;2.93;;;13.30;88.40;;;;;;5030147;28;20172;-75
2023/05/10 08:35:52;;;;;;;6.50;2.50;;;13.30;88.30;;;;;;5028872;28;20356;-75
2023/05/10 08:38:19;;;;;;;6.85;3.00;;;13.30;88.20;;;;;;5006562;28;20045;-75
2023/05/10 08:40:48;;;;;;;5.80;2.47;;;13.20;88.20;;;;;;5025718;28;20077;-77
2023/05/10 08:43:15;;;;;;;8.63;3.47;;;13.20;88.40;;;;;;5012806;28;20053;-75
2023/05/10 08:45:45;;;;;;;8.07;3.80;;;13.30;88.50;;;;;;5028467;28;20053;-75
2023/05/10 08:48:14;;;;;;;7.50;3.28;;;13.30;88.30;;;;;;5023956;28;20300;-75
2023/05/10 08:50:42;;;;;;;6.45;3.13;;;13.30;88.30;;;;;;5027919;28;20128;-75
2023/05/10 08:53:12;;;;;;;6.50;3.38;;;13.30;88.30;;;;;;5013381;28;20123;-75
2023/05/10 08:55:41;;;;;;;7.28;2.83;;;13.30;88.30;;;;;;5017695;28;20042;-75
2023/05/10 08:58:09;;;;;;;8.13;2.97;;;13.30;88.40;;;;;;5008391;28;20057;-75
2023/05/10 09:00:37;;;;;;;6.13;2.20;;;13.30;88.20;;;;;;5024311;28;21194;-75
2023/05/10 09:03:06;;;;;;;5.85;2.88;;;13.30;88.30;;;;;;5040691;28;20057;-75
2023/05/10 09:05:37;;;;;;;5.60;2.72;;;13.40;88.20;;;;;;5024721;28;20809;-75
2023/05/10 09:08:05;;;;;;;8.50;3.50;;;13.30;88.20;;;;;;5027368;28;20056;-75
2023/05/10 09:10:32;;;;;;;8.53;4.53;;;13.40;88.40;;;;;;5023790;28;20164;-75
2023/05/10 09:13:00;;;;;;;13.13;7.60;;;13.40;88.20;;;;;;5028531;28;20247;-75
2023/05/10 09:15:27;;;;;;;14.95;7.63;;;13.50;88.20;;;;;;5045452;28;20049;-75
2023/05/10 09:17:55;;;;;;;12.73;6.60;;;13.50;87.90;;;;;;5016188;28;20045;-75
2023/05/10 09:20:22;;;;;;;16.45;6.20;;;13.50;87.80;;;;;;5033023;28;20045;-75
2023/05/10 09:22:51;;;;;;;15.30;7.40;;;13.50;87.80;;;;;;5032895;28;20640;-75
2023/05/10 09:25:18;;;;;;;10.88;4.30;;;13.50;87.90;;;;;;5033774;28;20746;-75
2023/05/10 09:27:47;;;;;;;9.80;4.07;;;13.40;88.20;;;;;;5031610;28;20054;-75
2023/05/10 09:30:17;;;;;;;12.85;5.60;;;13.50;88.30;;;;;;5038325;28;20050;-75
2023/05/10 09:32:46;;;;;;;10.52;4.88;;;13.50;88.40;;;;;;5013395;28;20552;-75
2023/05/10 09:35:14;;;;;;;12.50;5.63;;;13.50;88.30;;;;;;5018544;28;20124;-75
2023/05/10 09:37:43;;;;;;;9.57;4.90;;;13.50;88.20;;;;;;5046816;28;20375;-75
2023/05/10 09:40:15;;;;;;;9.77;4.28;;;13.50;88.20;;;;;;5032448;28;20054;-75
2023/05/10 09:42:51;;;;;;;9.48;4.60;;;13.50;88.30;;;;;;5031689;28;20053;-75
2023/05/10 09:45:18;;;;;;;9.40;4.82;;;13.50;88.00;;;;;;5030926;28;20432;-75
2023/05/10 09:47:46;;;;;;;9.27;4.70;;;13.50;88.40;;;;;;5032110;28;20052;-75
2023/05/10 09:50:13;;;;;;;9.70;4.97;;;13.50;88.60;;;;;;5030925;28;20267;-75
2023/05/10 09:52:49;;;;;;;6.53;2.40;;;13.50;88.40;;;;;;5049243;28;20050;-75
2023/05/10 09:55:19;;;;;;;10.93;4.80;;;13.60;87.70;;;;;;5033294;28;20112;-75
2023/05/10 09:57:47;;;;;;;12.13;6.00;;;13.60;87.30;;;;;;5031513;28;20060;-75
2023/05/10 10:00:19;;;;;;;9.10;3.93;;;13.60;87.60;;;;;;5011655;28;20052;-75
2023/05/10 10:02:48;;;;;;;11.30;5.63;;;13.60;87.90;;;;;;5032849;28;20287;-75
2023/05/10 10:05:15;;;;;;;10.82;5.90;;;13.60;87.80;;;;;;5028494;28;20054;-75
2023/05/10 10:07:43;;;;;;;11.68;5.55;;;13.60;88.10;;;;;;5028802;28;20050;-75
2023/05/10 10:10:12;;;;;;;11.40;5.53;;;13.70;88.20;;;;;;5047981;28;20065;-75
2023/05/10 10:12:42;;;;;;;9.87;6.10;;;13.70;88.20;;;;;;5016032;28;20049;-75
2023/05/10 10:15:09;;;;;;;10.75;5.50;;;13.70;88.20;;;;;;5017767;28;20344;-75
2023/05/10 10:17:38;;;;;;;8.63;4.40;;;13.70;88.00;;;;;;5040635;28;20742;-75
2023/05/10 10:20:07;;;;;;;8.80;3.53;;;13.80;87.80;;;;;;5014471;28;20045;-75
2023/05/10 10:22:34;;;;;;;10.98;5.60;;;13.80;87.60;;;;;;5015200;28;20136;-75
2023/05/10 10:25:01;;;;;;;12.00;5.37;;;13.80;87.60;;;;;;5012809;28;20054;-75
2023/05/10 10:27:38;;;;;;;9.20;4.97;;;13.90;87.80;;;;;;5055385;23;20281;-76
2023/05/10 10:30:17;;;;;;;9.80;5.07;;;13.90;87.80;;;;;;5050181;28;20085;-76
2023/05/10 10:33:15;;;;;;;7.85;3.75;;;13.90;87.70;;;;;;5025527;28;20594;-75
2023/05/10 10:35:43;;;;;;;9.00;3.70;;;14.00;87.10;;;;;;5034923;28;20112;-75
2023/05/10 10:38:10;;;;;;;7.43;3.57;;;14.00;86.60;;;;;;5029486;28;20049;-75
2023/05/10 10:40:38;;;;;;;8.60;3.97;;;13.90;86.40;;;;;;5048009;28;20277;-75
2023/05/10 10:43:24;;;;;;;7.82;4.05;;;14.00;86.60;;;;;;5039806;28;20064;-75
2023/05/10 10:46:17;;;;;;;8.07;3.90;;;14.00;86.60;;;;;;5042259;28;20048;-75
2023/05/10 10:48:49;;;;;;;7.35;3.70;;;14.00;86.70;;;;;;5043610;28;20053;-75
2023/05/10 10:51:16;;;;;;;5.93;3.27;;;14.00;86.90;;;;;;5051454;28;20075;-75
2023/05/10 10:53:44;;;;;;;7.72;3.45;;;14.10;86.50;;;;;;5031811;28;20249;-75
2023/05/10 10:56:13;;;;;;;6.90;3.50;;;14.10;86.50;;;;;;5049208;28;20049;-75
2023/05/10 10:58:40;;;;;;;6.50;3.45;;;14.10;86.50;;;;;;5040445;28;20057;-76
2023/05/10 11:01:17;;;;;;;7.25;3.70;;;14.10;86.10;;;;;;5045391;28;20056;-75
2023/05/10 11:04:20;;;;;;;4.97;2.00;;;14.10;86.20;;;;;;5023478;28;20716;-75
2023/05/10 11:06:47;;;;;;;6.80;2.47;;;14.20;86.30;;;;;;5024220;28;20384;-75
2023/05/10 11:09:14;;;;;;;8.35;3.83;;;14.20;86.00;;;;;;5048970;28;21773;-75
2023/05/10 11:11:54;;;;;;;7.80;3.92;;;14.20;86.00;;;;;;5031672;28;20132;-75
2023/05/10 11:14:23;;;;;;;7.93;4.18;;;14.20;85.70;;;;;;5035593;28;20045;-75
2023/05/10 11:16:51;;;;;;;9.03;4.43;;;14.20;86.00;;;;;;5017916;28;20045;-75
2023/05/10 11:19:20;;;;;;;8.10;3.47;;;14.20;86.10;;;;;;5032350;28;20285;-76
2023/05/10 11:21:49;;;;;;;7.72;2.50;;;14.20;86.00;;;;;;5030846;28;20103;-77
2023/05/10 11:24:18;;;;;;;7.45;2.58;;;14.30;85.90;;;;;;5030587;28;20061;-76
2023/05/10 11:26:45;;;;;;;8.00;3.25;;;14.30;85.20;;;;;;5031156;28;20069;-75
2023/05/10 11:29:14;;;;;;;6.03;2.50;;;14.30;84.60;;;;;;5027058;28;20152;-75
2023/05/10 11:31:46;;;;;;;9.68;3.78;;;14.20;84.50;;;;;;5049894;28;20291;-76
2023/05/10 11:34:24;;;;;;;9.75;4.22;;;14.20;84.50;;;;;;5036479;28;20107;-76
2023/05/10 11:36:53;;;;;;;9.18;4.22;;;14.20;84.60;;;;;;5025924;28;20057;-76
2023/05/10 11:39:20;;;;;;;9.75;4.47;;;14.20;84.80;;;;;;5030825;28;20153;-76
2023/05/10 11:41:49;;;;;;;9.17;3.90;;;14.30;85.10;;;;;;5042156;28;20042;-76
2023/05/10 11:44:17;;;;;;;6.35;2.60;;;14.30;85.00;;;;;;5026317;28;20987;-77
2023/05/10 11:46:44;;;;;;;10.30;4.50;;;14.30;85.10;;;;;;5048759;28;20063;-76
2023/05/10 11:49:13;;;;;;;9.05;4.13;;;14.30;85.10;;;;;;5030446;28;20494;-77
2023/05/10 11:51:43;;;;;;;10.23;4.55;;;14.30;84.80;;;;;;5030138;28;20053;-76
2023/05/10 11:54:11;;;;;;;7.60;4.10;;;14.30;84.70;;;;;;5030645;28;20057;-76
2023/05/10 11:56:39;;;;;;;7.68;3.88;;;14.40;84.10;;;;;;5045131;28;20415;-76
2023/05/10 11:59:06;;;;;;;8.52;3.63;;;14.40;83.80;;;;;;5019811;28;20057;-75
2023/05/10 12:01:33;;;;;;;9.80;5.25;;;14.40;83.80;;;;;;5016616;28;20518;-76
2023/05/10 12:04:01;;;;;;;8.00;4.20;;;14.40;83.90;;;;;;5035259;28;20054;-76
2023/05/10 12:06:29;;;;;;;7.17;3.83;;;14.50;84.30;;;;;;5042663;28;20049;-76
2023/05/10 12:08:58;;;;;;;6.97;3.00;;;14.50;83.70;;;;;;5035171;28;20279;-76
2023/05/10 12:11:27;;;;;;;8.60;4.30;;;14.50;83.70;;;;;;5033591;28;20045;-76
2023/05/10 12:13:55;;;;;;;7.65;4.10;;;14.50;83.70;;;;;;5047338;28;20061;-76
2023/05/10 12:16:23;;;;;;;8.65;3.95;;;14.50;83.10;;;;;;5028377;28;20157;-76
2023/05/10 12:18:51;;;;;;;8.90;4.53;;;14.50;82.90;;;;;;5045061;28;20496;-76
2023/05/10 12:21:20;;;;;;;8.57;4.60;;;14.50;83.00;;;;;;5031181;28;20303;-75
2023/05/10 12:23:47;;;;;;;6.75;2.97;;;14.50;83.00;;;;;;5031531;28;20053;-76
2023/05/10 12:26:16;;;;;;;9.10;4.32;;;14.50;82.80;;;;;;5034536;28;20046;-75
2023/05/10 12:28:44;;;;;;;10.27;5.38;;;14.50;82.80;;;;;;5037700;28;20503;-76
2023/05/10 12:31:11;;;;;;;9.70;4.37;;;14.50;82.90;;;;;;5048881;28;20046;-76
2023/05/10 12:33:42;;;;;;;10.50;4.90;;;14.50;83.40;;;;;;5042043;28;20277;-76
2023/05/10 12:36:10;;;;;;;11.13;4.28;;;14.50;83.20;;;;;;5030287;28;20528;-76
2023/05/10 12:38:39;;;;;;;11.65;5.47;;;14.50;83.30;;;;;;5024171;28;20049;-76
2023/05/10 12:41:08;;;;;;;11.65;5.55;;;14.50;83.30;;;;;;5025620;28;20050;-76
2023/05/10 12:43:37;;;;;;;10.30;4.13;;;14.50;83.80;;;;;;5030296;28;20049;-76
2023/05/10 12:46:08;;;;;;;11.82;5.90;;;14.50;83.80;;;;;;5037609;28;20265;-76
2023/05/10 12:48:36;;;;;;;12.70;6.35;;;14.50;84.00;;;;;;5047496;28;20542;-76
2023/05/10 12:51:04;;;;;;;12.70;6.10;;;14.60;83.80;;;;;;5031152;28;20073;-76
2023/05/10 12:53:31;;;;;;;12.93;5.93;;;14.50;84.00;;;;;;5033358;28;20057;-76
2023/05/10 12:55:58;;;;;;;15.03;6.87;;;14.50;84.20;;;;;;5028425;28;20065;-77